sensor_id;sensor_type;location;lat;lon;timestamp;pressure;altitude;pressure_sealevel;temperature;humidity
75549;BME280;64133;56.002;37.208;2022-12-22T00:00:39;98155.78;;;-0.16;92.75
75549;BME280;64133;56.002;37.208;2022-12-22T00:06:01;98148.48;;;-0.16;92.70
75549;BME280;64133;56.002;37.208;2022-12-22T00:11:23;98153.84;;;-0.12;92.74
75549;BME280;64133;56.002;37.208;2022-12-22T00:16:45;98151.63;;;-0.11;92.79
75549;BME280;64133;56.002;37.208;2022-12-22T00:22:13;98145.81;;;-0.08;92.87
75549;BME280;64133;56.002;37.208;2022-12-22T00:27:34;98137.02;;;-0.05;92.76
75549;BME280;64133;56.002;37.208;2022-12-22T00:32:56;98130.66;;;-0.07;92.75
75549;BME280;64133;56.002;37.208;2022-12-22T00:38:19;98121.49;;;-0.05;92.77
75549;BME280;64133;56.002;37.208;2022-12-22T00:43:41;98125.30;;;-0.04;92.67
75549;BME280;64133;56.002;37.208;2022-12-22T00:49:03;98120.39;;;-0.01;92.68
75549;BME280;64133;56.002;37.208;2022-12-22T00:54:26;98114.67;;;0.01;92.72
75549;BME280;64133;56.002;37.208;2022-12-22T00:59:49;98109.76;;;0.04;92.65
75549;BME280;64133;56.002;37.208;2022-12-22T01:05:11;98107.73;;;0.02;92.62
75549;BME280;64133;56.002;37.208;2022-12-22T01:10:33;98108.39;;;0.05;92.53
75549;BME280;64133;56.002;37.208;2022-12-22T01:15:56;98114.59;;;0.10;92.63
75549;BME280;64133;56.002;37.208;2022-12-22T01:21:18;98109.42;;;0.10;92.67
75549;BME280;64133;56.002;37.208;2022-12-22T01:26:40;98102.73;;;0.13;92.54
75549;BME280;64133;56.002;37.208;2022-12-22T01:32:03;98102.84;;;0.11;92.41
75549;BME280;64133;56.002;37.208;2022-12-22T01:37:26;98096.08;;;0.09;92.35
75549;BME280;64133;56.002;37.208;2022-12-22T01:42:48;98094.34;;;0.09;92.33
75549;BME280;64133;56.002;37.208;2022-12-22T01:48:12;98085.19;;;0.11;92.46
75549;BME280;64133;56.002;37.208;2022-12-22T01:53:34;98084.72;;;0.11;92.42
75549;BME280;64133;56.002;37.208;2022-12-22T01:58:57;98084.25;;;0.12;92.41
75549;BME280;64133;56.002;37.208;2022-12-22T02:04:19;98084.91;;;0.15;92.48
75549;BME280;64133;56.002;37.208;2022-12-22T02:09:43;98081.95;;;0.14;92.44
75549;BME280;64133;56.002;37.208;2022-12-22T02:15:05;98081.77;;;0.10;92.41
75549;BME280;64133;56.002;37.208;2022-12-22T02:20:35;98072.89;;;0.14;92.57
75549;BME280;64133;56.002;37.208;2022-12-22T02:25:59;98073.98;;;0.17;92.62
75549;BME280;64133;56.002;37.208;2022-12-22T02:31:20;98078.43;;;0.15;92.64
75549;BME280;64133;56.002;37.208;2022-12-22T02:36:47;98079.27;;;0.16;92.62
75549;BME280;64133;56.002;37.208;2022-12-22T02:42:11;98088.69;;;0.17;92.59
75549;BME280;64133;56.002;37.208;2022-12-22T02:47:31;98090.66;;;0.13;92.55
75549;BME280;64133;56.002;37.208;2022-12-22T02:52:53;98086.56;;;0.16;92.80
75549;BME280;64133;56.002;37.208;2022-12-22T02:58:15;98093.14;;;0.15;92.74
75549;BME280;64133;56.002;37.208;2022-12-22T03:03:37;98080.45;;;0.17;92.74
75549;BME280;64133;56.002;37.208;2022-12-22T03:09:00;98078.62;;;0.19;92.79
75549;BME280;64133;56.002;37.208;2022-12-22T03:14:22;98072.87;;;0.21;92.79
75549;BME280;64133;56.002;37.208;2022-12-22T03:19:45;98072.04;;;0.21;92.69
75549;BME280;64133;56.002;37.208;2022-12-22T03:25:08;98071.21;;;0.20;92.67
75549;BME280;64133;56.002;37.208;2022-12-22T03:30:31;98077.88;;;0.24;92.66
75549;BME280;64133;56.002;37.208;2022-12-22T03:35:36;98073.33;;;0.21;92.44
75549;BME280;64133;56.002;37.208;2022-12-22T03:40:40;98072.52;;;0.28;92.79
75549;BME280;64133;56.002;37.208;2022-12-22T03:45:45;98072.59;;;0.26;92.53
75549;BME280;64133;56.002;37.208;2022-12-22T03:51:07;98062.16;;;0.28;92.74
75549;BME280;64133;56.002;37.208;2022-12-22T03:56:12;98060.75;;;0.29;92.55
75549;BME280;64133;56.002;37.208;2022-12-22T04:01:17;98056.15;;;0.27;92.51
75549;BME280;64133;56.002;37.208;2022-12-22T04:06:21;98051.80;;;0.28;92.53
75549;BME280;64133;56.002;37.208;2022-12-22T04:11:28;98049.75;;;0.33;92.48
75549;BME280;64133;56.002;37.208;2022-12-22T04:16:50;98056.59;;;0.34;92.55
75549;BME280;64133;56.002;37.208;2022-12-22T04:21:55;98062.70;;;0.33;92.53
75549;BME280;64133;56.002;37.208;2022-12-22T04:27:00;98054.93;;;0.33;92.50
75549;BME280;64133;56.002;37.208;2022-12-22T04:32:05;98064.64;;;0.29;92.49
75549;BME280;64133;56.002;37.208;2022-12-22T04:37:09;98060.00;;;0.34;92.55
75549;BME280;64133;56.002;37.208;2022-12-22T04:42:14;98060.58;;;0.32;92.49
75549;BME280;64133;56.002;37.208;2022-12-22T04:47:19;98064.28;;;0.35;92.69
75549;BME280;64133;56.002;37.208;2022-12-22T04:52:23;98062.34;;;0.32;92.75
75549;BME280;64133;56.002;37.208;2022-12-22T04:57:28;98055.66;;;0.35;92.66
75549;BME280;64133;56.002;37.208;2022-12-22T05:02:33;98056.77;;;0.38;92.84
75549;BME280;64133;56.002;37.208;2022-12-22T05:07:37;98066.20;;;0.39;92.60
75549;BME280;64133;56.002;37.208;2022-12-22T05:12:42;98068.35;;;0.39;92.65
75549;BME280;64133;56.002;37.208;2022-12-22T05:17:59;98075.73;;;0.38;92.72
75549;BME280;64133;56.002;37.208;2022-12-22T05:23:03;98083.97;;;0.38;92.81
75549;BME280;64133;56.002;37.208;2022-12-22T05:28:08;98091.20;;;0.40;92.65
75549;BME280;64133;56.002;37.208;2022-12-22T05:33:13;98090.27;;;0.41;92.64
75549;BME280;64133;56.002;37.208;2022-12-22T05:38:17;98097.67;;;0.40;92.63
75549;BME280;64133;56.002;37.208;2022-12-22T05:43:22;98108.41;;;0.48;92.58
75549;BME280;64133;56.002;37.208;2022-12-22T05:48:27;98107.46;;;0.42;92.48
75549;BME280;64133;56.002;37.208;2022-12-22T05:53:31;98102.57;;;0.44;92.58
75549;BME280;64133;56.002;37.208;2022-12-22T05:58:37;98111.71;;;0.43;92.58
75549;BME280;64133;56.002;37.208;2022-12-22T06:03:41;98113.00;;;0.43;92.52
75549;BME280;64133;56.002;37.208;2022-12-22T06:08:46;98113.58;;;0.41;92.48
75549;BME280;64133;56.002;37.208;2022-12-22T06:13:51;98108.75;;;0.42;92.61
75549;BME280;64133;56.002;37.208;2022-12-22T06:24:09;98128.45;;;0.52;92.47
75549;BME280;64133;56.002;37.208;2022-12-22T06:29:14;98122.28;;;0.40;92.65
75549;BME280;64133;56.002;37.208;2022-12-22T06:34:18;98127.08;;;0.46;92.57
75549;BME280;64133;56.002;37.208;2022-12-22T06:39:23;98133.09;;;0.46;92.61
75549;BME280;64133;56.002;37.208;2022-12-22T06:44:31;98135.14;;;0.48;92.70
75549;BME280;64133;56.002;37.208;2022-12-22T06:49:36;98130.78;;;0.49;92.67
75549;BME280;64133;56.002;37.208;2022-12-22T06:54:41;98126.80;;;0.50;92.83
75549;BME280;64133;56.002;37.208;2022-12-22T06:59:45;98125.58;;;0.56;92.83
75549;BME280;64133;56.002;37.208;2022-12-22T07:04:50;98133.17;;;0.59;92.53
75549;BME280;64133;56.002;37.208;2022-12-22T07:09:55;98128.35;;;0.60;92.45
75549;BME280;64133;56.002;37.208;2022-12-22T07:14:59;98127.05;;;0.60;92.39
75549;BME280;64133;56.002;37.208;2022-12-22T07:20:05;98126.70;;;0.66;92.29
75549;BME280;64133;56.002;37.208;2022-12-22T07:25:10;98136.78;;;0.71;92.17
75549;BME280;64133;56.002;37.208;2022-12-22T07:30:15;98135.13;;;0.70;92.23
75549;BME280;64133;56.002;37.208;2022-12-22T07:35:20;98140.74;;;0.77;92.23
75549;BME280;64133;56.002;37.208;2022-12-22T07:40:25;98137.14;;;0.79;91.85
75549;BME280;64133;56.002;37.208;2022-12-22T07:45:29;98137.32;;;0.76;91.73
75549;BME280;64133;56.002;37.208;2022-12-22T07:50:34;98130.55;;;0.88;91.57
75549;BME280;64133;56.002;37.208;2022-12-22T07:55:39;98133.44;;;0.83;91.79
75549;BME280;64133;56.002;37.208;2022-12-22T08:00:43;98137.94;;;0.87;91.72
75549;BME280;64133;56.002;37.208;2022-12-22T08:05:48;98138.88;;;0.86;91.35
75549;BME280;64133;56.002;37.208;2022-12-22T08:10:53;98147.12;;;0.85;91.34
75549;BME280;64133;56.002;37.208;2022-12-22T08:16:02;98149.67;;;0.99;91.43
75549;BME280;64133;56.002;37.208;2022-12-22T08:21:07;98149.77;;;1.05;90.90
75549;BME280;64133;56.002;37.208;2022-12-22T08:26:13;98141.06;;;1.06;90.60
75549;BME280;64133;56.002;37.208;2022-12-22T08:31:17;98134.57;;;1.13;90.73
75549;BME280;64133;56.002;37.208;2022-12-22T08:36:21;98139.77;;;1.06;90.82
75549;BME280;64133;56.002;37.208;2022-12-22T08:41:26;98131.92;;;1.00;90.78
75549;BME280;64133;56.002;37.208;2022-12-22T08:46:50;98133.50;;;0.89;91.03
75549;BME280;64133;56.002;37.208;2022-12-22T08:51:55;98137.03;;;0.88;91.14
75549;BME280;64133;56.002;37.208;2022-12-22T08:56:59;98132.97;;;0.84;91.14
75549;BME280;64133;56.002;37.208;2022-12-22T09:02:04;98142.40;;;0.78;91.33
75549;BME280;64133;56.002;37.208;2022-12-22T09:07:09;98143.91;;;0.74;91.59
75549;BME280;64133;56.002;37.208;2022-12-22T09:12:13;98161.48;;;0.77;91.54
75549;BME280;64133;56.002;37.208;2022-12-22T09:17:18;98168.68;;;0.86;91.72
75549;BME280;64133;56.002;37.208;2022-12-22T09:22:22;98178.69;;;0.78;91.45
75549;BME280;64133;56.002;37.208;2022-12-22T09:27:28;98175.44;;;0.74;91.55
75549;BME280;64133;56.002;37.208;2022-12-22T09:32:33;98182.68;;;0.76;91.80
75549;BME280;64133;56.002;37.208;2022-12-22T09:37:37;98176.64;;;0.83;91.72
75549;BME280;64133;56.002;37.208;2022-12-22T09:42:42;98179.80;;;0.88;91.73
75549;BME280;64133;56.002;37.208;2022-12-22T09:47:47;98175.16;;;0.86;91.73
75549;BME280;64133;56.002;37.208;2022-12-22T09:52:53;98166.09;;;0.86;91.67
75549;BME280;64133;56.002;37.208;2022-12-22T09:57:57;98154.14;;;0.97;91.48
75549;BME280;64133;56.002;37.208;2022-12-22T10:03:03;98159.58;;;1.00;91.28
75549;BME280;64133;56.002;37.208;2022-12-22T10:08:11;98153.48;;;1.01;91.50
75549;BME280;64133;56.002;37.208;2022-12-22T10:13:16;98138.64;;;1.10;91.62
75549;BME280;64133;56.002;37.208;2022-12-22T10:18:21;98135.65;;;1.16;91.38
75549;BME280;64133;56.002;37.208;2022-12-22T10:23:26;98142.89;;;1.11;91.08
75549;BME280;64133;56.002;37.208;2022-12-22T10:28:32;98138.46;;;1.13;90.91
75549;BME280;64133;56.002;37.208;2022-12-22T10:33:34;98140.59;;;1.14;91.11
75549;BME280;64133;56.002;37.208;2022-12-22T10:38:39;98147.61;;;1.12;91.19
75549;BME280;64133;56.002;37.208;2022-12-22T10:43:47;98149.38;;;1.04;91.26
75549;BME280;64133;56.002;37.208;2022-12-22T10:48:51;98165.45;;;0.96;91.24
75549;BME280;64133;56.002;37.208;2022-12-22T10:53:59;98154.50;;;0.98;91.48
75549;BME280;64133;56.002;37.208;2022-12-22T10:59:15;98153.67;;;0.91;91.61
75549;BME280;64133;56.002;37.208;2022-12-22T11:04:21;98159.79;;;0.83;91.75
75549;BME280;64133;56.002;37.208;2022-12-22T11:09:26;98157.41;;;0.80;92.12
75549;BME280;64133;56.002;37.208;2022-12-22T11:14:32;98155.00;;;0.84;91.94
75549;BME280;64133;56.002;37.208;2022-12-22T11:25:26;98164.61;;;0.82;92.09
75549;BME280;64133;56.002;37.208;2022-12-22T11:35:52;98139.09;;;0.75;92.20
75549;BME280;64133;56.002;37.208;2022-12-22T11:40:58;98168.78;;;0.84;92.52
75549;BME280;64133;56.002;37.208;2022-12-22T11:46:16;98173.14;;;0.84;92.47
75549;BME280;64133;56.002;37.208;2022-12-22T11:51:24;98181.84;;;0.75;92.33
75549;BME280;64133;56.002;37.208;2022-12-22T11:56:30;98195.16;;;0.69;92.45
75549;BME280;64133;56.002;37.208;2022-12-22T12:01:45;98200.73;;;0.70;92.61
75549;BME280;64133;56.002;37.208;2022-12-22T12:07:01;98200.91;;;0.67;92.71
75549;BME280;64133;56.002;37.208;2022-12-22T12:12:05;98190.26;;;0.65;92.49
75549;BME280;64133;56.002;37.208;2022-12-22T12:17:11;98195.55;;;0.63;92.52
75549;BME280;64133;56.002;37.208;2022-12-22T12:22:17;98207.39;;;0.67;92.49
75549;BME280;64133;56.002;37.208;2022-12-22T12:27:28;98208.50;;;0.63;92.07
75549;BME280;64133;56.002;37.208;2022-12-22T12:32:33;98206.56;;;0.67;92.23
75549;BME280;64133;56.002;37.208;2022-12-22T12:37:36;98216.84;;;0.61;91.92
75549;BME280;64133;56.002;37.208;2022-12-22T12:42:41;98219.33;;;0.63;91.98
75549;BME280;64133;56.002;37.208;2022-12-22T12:47:45;98223.69;;;0.62;91.98
75549;BME280;64133;56.002;37.208;2022-12-22T12:53:18;98219.80;;;0.62;91.87
75549;BME280;64133;56.002;37.208;2022-12-22T12:58:47;98221.63;;;0.60;92.01
75549;BME280;64133;56.002;37.208;2022-12-22T13:03:51;98226.81;;;0.60;92.00
75549;BME280;64133;56.002;37.208;2022-12-22T13:09:16;98229.42;;;0.53;91.96
75549;BME280;64133;56.002;37.208;2022-12-22T13:14:57;98235.89;;;0.53;91.88
75549;BME280;64133;56.002;37.208;2022-12-22T13:20:02;98244.77;;;0.56;92.08
75549;BME280;64133;56.002;37.208;2022-12-22T13:25:13;98234.33;;;0.58;91.88
75549;BME280;64133;56.002;37.208;2022-12-22T13:30:19;98229.97;;;0.58;91.98
75549;BME280;64133;56.002;37.208;2022-12-22T13:35:24;98247.75;;;0.57;91.79
75549;BME280;64133;56.002;37.208;2022-12-22T13:47:01;98239.70;;;0.62;91.93
75549;BME280;64133;56.002;37.208;2022-12-22T13:52:08;98229.33;;;0.62;91.66
75549;BME280;64133;56.002;37.208;2022-12-22T13:57:15;98224.98;;;0.62;91.83
75549;BME280;64133;56.002;37.208;2022-12-22T14:02:19;98221.73;;;0.59;91.68
75549;BME280;64133;56.002;37.208;2022-12-22T14:07:24;98216.83;;;0.54;91.71
75549;BME280;64133;56.002;37.208;2022-12-22T14:12:29;98226.92;;;0.59;91.74
75549;BME280;64133;56.002;37.208;2022-12-22T14:17:34;98228.58;;;0.60;91.62
75549;BME280;64133;56.002;37.208;2022-12-22T14:22:39;98232.09;;;0.59;91.57
75549;BME280;64133;56.002;37.208;2022-12-22T14:27:43;98236.34;;;0.60;91.66
75549;BME280;64133;56.002;37.208;2022-12-22T14:32:48;98249.30;;;0.60;91.58
75549;BME280;64133;56.002;37.208;2022-12-22T14:43:28;98266.63;;;0.66;91.66
75549;BME280;64133;56.002;37.208;2022-12-22T14:48:39;98270.30;;;0.55;91.44
75549;BME280;64133;56.002;37.208;2022-12-22T14:53:45;98288.38;;;0.57;91.57
75549;BME280;64133;56.002;37.208;2022-12-22T14:58:49;98295.22;;;0.58;91.33
75549;BME280;64133;56.002;37.208;2022-12-22T15:04:05;98291.20;;;0.52;91.55
75549;BME280;64133;56.002;37.208;2022-12-22T15:09:28;98284.02;;;0.57;91.44
75549;BME280;64133;56.002;37.208;2022-12-22T15:14:34;98302.33;;;0.54;91.51
75549;BME280;64133;56.002;37.208;2022-12-22T15:19:38;98306.41;;;0.58;91.55
75549;BME280;64133;56.002;37.208;2022-12-22T15:24:43;98291.03;;;0.55;91.66
75549;BME280;64133;56.002;37.208;2022-12-22T15:29:50;98301.77;;;0.56;91.64
75549;BME280;64133;56.002;37.208;2022-12-22T15:34:55;98295.12;;;0.59;91.71
75549;BME280;64133;56.002;37.208;2022-12-22T15:40:04;98295.95;;;0.53;91.76
75549;BME280;64133;56.002;37.208;2022-12-22T15:45:11;98296.88;;;0.59;91.67
75549;BME280;64133;56.002;37.208;2022-12-22T15:50:19;98304.66;;;0.59;91.78
75549;BME280;64133;56.002;37.208;2022-12-22T15:55:21;98306.31;;;0.53;91.80
75549;BME280;64133;56.002;37.208;2022-12-22T16:00:26;98295.55;;;0.52;91.85
75549;BME280;64133;56.002;37.208;2022-12-22T16:05:32;98297.34;;;0.58;91.85
75549;BME280;64133;56.002;37.208;2022-12-22T16:10:36;98299.56;;;0.57;91.84
75549;BME280;64133;56.002;37.208;2022-12-22T16:15:41;98273.45;;;0.60;91.94
75549;BME280;64133;56.002;37.208;2022-12-22T16:20:46;98282.98;;;0.60;91.86
75549;BME280;64133;56.002;37.208;2022-12-22T16:25:54;98290.30;;;0.60;91.80
75549;BME280;64133;56.002;37.208;2022-12-22T16:31:00;98288.27;;;0.58;91.92
75549;BME280;64133;56.002;37.208;2022-12-22T16:36:08;98268.67;;;0.61;91.76
75549;BME280;64133;56.002;37.208;2022-12-22T16:41:18;98286.69;;;0.56;91.94
75549;BME280;64133;56.002;37.208;2022-12-22T16:46:30;98292.73;;;0.70;91.75
75549;BME280;64133;56.002;37.208;2022-12-22T16:56:59;98280.34;;;0.75;91.45
75549;BME280;64133;56.002;37.208;2022-12-22T17:02:03;98297.62;;;0.68;91.44
75549;BME280;64133;56.002;37.208;2022-12-22T17:07:09;98305.30;;;0.69;91.46
75549;BME280;64133;56.002;37.208;2022-12-22T17:12:17;98305.89;;;0.74;91.54
75549;BME280;64133;56.002;37.208;2022-12-22T17:17:21;98292.73;;;0.70;91.36
75549;BME280;64133;56.002;37.208;2022-12-22T17:22:27;98282.45;;;0.69;91.39
75549;BME280;64133;56.002;37.208;2022-12-22T17:27:31;98295.33;;;0.70;91.46
75549;BME280;64133;56.002;37.208;2022-12-22T17:32:37;98308.84;;;0.75;91.45
75549;BME280;64133;56.002;37.208;2022-12-22T17:37:47;98318.28;;;0.77;91.54
75549;BME280;64133;56.002;37.208;2022-12-22T17:42:54;98318.65;;;0.78;91.39
75549;BME280;64133;56.002;37.208;2022-12-22T17:47:58;98323.83;;;0.78;91.48
75549;BME280;64133;56.002;37.208;2022-12-22T17:53:04;98320.14;;;0.74;91.44
75549;BME280;64133;56.002;37.208;2022-12-22T17:58:10;98318.38;;;0.75;91.39
75549;BME280;64133;56.002;37.208;2022-12-22T18:03:15;98304.13;;;0.75;91.53
75549;BME280;64133;56.002;37.208;2022-12-22T18:13:34;98305.23;;;0.71;91.59
75549;BME280;64133;56.002;37.208;2022-12-22T18:18:39;98306.99;;;0.70;91.73
75549;BME280;64133;56.002;37.208;2022-12-22T18:23:49;98316.70;;;0.74;91.77
75549;BME280;64133;56.002;37.208;2022-12-22T18:28:53;98309.11;;;0.78;91.74
75549;BME280;64133;56.002;37.208;2022-12-22T18:33:58;98313.01;;;0.71;91.81
75549;BME280;64133;56.002;37.208;2022-12-22T18:39:03;98311.05;;;0.67;91.72
75549;BME280;64133;56.002;37.208;2022-12-22T18:44:10;98306.87;;;0.65;92.02
75549;BME280;64133;56.002;37.208;2022-12-22T18:49:14;98313.28;;;0.66;91.93
75549;BME280;64133;56.002;37.208;2022-12-22T18:54:25;98312.34;;;0.67;92.06
75549;BME280;64133;56.002;37.208;2022-12-22T18:59:28;98311.52;;;0.67;92.12
75549;BME280;64133;56.002;37.208;2022-12-22T19:04:33;98318.09;;;0.65;92.06
75549;BME280;64133;56.002;37.208;2022-12-22T19:09:37;98315.94;;;0.65;92.12
75549;BME280;64133;56.002;37.208;2022-12-22T19:14:43;98316.97;;;0.62;92.32
75549;BME280;64133;56.002;37.208;2022-12-22T19:19:47;98321.59;;;0.64;92.25
75549;BME280;64133;56.002;37.208;2022-12-22T19:24:52;98322.42;;;0.65;92.38
75549;BME280;64133;56.002;37.208;2022-12-22T19:29:57;98311.05;;;0.67;92.40
75549;BME280;64133;56.002;37.208;2022-12-22T19:35:01;98319.68;;;0.75;92.33
75549;BME280;64133;56.002;37.208;2022-12-22T19:40:08;98317.16;;;0.66;92.32
75549;BME280;64133;56.002;37.208;2022-12-22T19:45:16;98321.49;;;0.59;92.25
75549;BME280;64133;56.002;37.208;2022-12-22T19:50:22;98326.58;;;0.60;92.25
75549;BME280;64133;56.002;37.208;2022-12-22T19:55:27;98322.88;;;0.64;92.57
75549;BME280;64133;56.002;37.208;2022-12-22T20:00:31;98326.97;;;0.61;92.50
75549;BME280;64133;56.002;37.208;2022-12-22T20:05:36;98324.89;;;0.52;92.46
75549;BME280;64133;56.002;37.208;2022-12-22T20:10:41;98320.83;;;0.55;92.63
75549;BME280;64133;56.002;37.208;2022-12-22T20:15:45;98316.09;;;0.47;92.58
75549;BME280;64133;56.002;37.208;2022-12-22T20:20:54;98318.24;;;0.48;92.77
75549;BME280;64133;56.002;37.208;2022-12-22T20:25:57;98308.91;;;0.53;92.86
75549;BME280;64133;56.002;37.208;2022-12-22T20:31:02;98320.07;;;0.46;92.98
75549;BME280;64133;56.002;37.208;2022-12-22T20:36:14;98315.82;;;0.45;92.89
75549;BME280;64133;56.002;37.208;2022-12-22T20:41:16;98317.02;;;0.46;93.15
75549;BME280;64133;56.002;37.208;2022-12-22T20:46:21;98300.55;;;0.40;93.12
75549;BME280;64133;56.002;37.208;2022-12-22T20:51:26;98303.59;;;0.40;93.24
75549;BME280;64133;56.002;37.208;2022-12-22T20:56:32;98309.14;;;0.41;93.29
75549;BME280;64133;56.002;37.208;2022-12-22T21:01:36;98303.86;;;0.42;93.36
75549;BME280;64133;56.002;37.208;2022-12-22T21:06:43;98311.84;;;0.39;93.28
75549;BME280;64133;56.002;37.208;2022-12-22T21:11:47;98308.58;;;0.43;93.31
75549;BME280;64133;56.002;37.208;2022-12-22T21:16:51;98290.08;;;0.42;93.40
75549;BME280;64133;56.002;37.208;2022-12-22T21:21:56;98282.88;;;0.40;93.48
75549;BME280;64133;56.002;37.208;2022-12-22T21:27:01;98282.68;;;0.36;93.44
75549;BME280;64133;56.002;37.208;2022-12-22T21:32:06;98278.98;;;0.40;93.54
75549;BME280;64133;56.002;37.208;2022-12-22T21:37:13;98278.33;;;0.36;93.40
75549;BME280;64133;56.002;37.208;2022-12-22T21:42:17;98272.69;;;0.37;93.47
75549;BME280;64133;56.002;37.208;2022-12-22T21:47:22;98287.66;;;0.39;93.49
75549;BME280;64133;56.002;37.208;2022-12-22T21:52:27;98291.91;;;0.33;93.65
75549;BME280;64133;56.002;37.208;2022-12-22T21:57:31;98289.05;;;0.37;93.62
75549;BME280;64133;56.002;37.208;2022-12-22T22:02:36;98303.47;;;0.34;93.62
75549;BME280;64133;56.002;37.208;2022-12-22T22:07:40;98304.30;;;0.35;93.66
75549;BME280;64133;56.002;37.208;2022-12-22T22:12:45;98307.66;;;0.37;93.63
75549;BME280;64133;56.002;37.208;2022-12-22T22:17:50;98311.91;;;0.38;93.73
75549;BME280;64133;56.002;37.208;2022-12-22T22:22:55;98309.14;;;0.41;93.72
75549;BME280;64133;56.002;37.208;2022-12-22T22:27:59;98307.09;;;0.39;93.64
75549;BME280;64133;56.002;37.208;2022-12-22T22:33:04;98313.66;;;0.37;93.61
75549;BME280;64133;56.002;37.208;2022-12-22T22:38:11;98311.64;;;0.42;93.67
75549;BME280;64133;56.002;37.208;2022-12-22T22:43:15;98310.70;;;0.43;93.66
75549;BME280;64133;56.002;37.208;2022-12-22T22:48:21;98306.29;;;0.45;93.67
75549;BME280;64133;56.002;37.208;2022-12-22T22:53:25;98313.12;;;0.46;93.64
75549;BME280;64133;56.002;37.208;2022-12-22T22:58:30;98317.22;;;0.50;93.66
75549;BME280;64133;56.002;37.208;2022-12-22T23:03:34;98313.33;;;0.50;93.59
75549;BME280;64133;56.002;37.208;2022-12-22T23:08:39;98312.86;;;0.51;93.49
75549;BME280;64133;56.002;37.208;2022-12-22T23:13:43;98293.43;;;0.51;93.37
75549;BME280;64133;56.002;37.208;2022-12-22T23:18:49;98308.51;;;0.52;93.36
75549;BME280;64133;56.002;37.208;2022-12-22T23:23:56;98286.95;;;0.51;93.39
75549;BME280;64133;56.002;37.208;2022-12-22T23:29:01;98280.38;;;0.45;93.36
75549;BME280;64133;56.002;37.208;2022-12-22T23:34:05;98276.20;;;0.43;93.39
75549;BME280;64133;56.002;37.208;2022-12-22T23:39:10;98266.03;;;0.47;93.46
75549;BME280;64133;56.002;37.208;2022-12-22T23:44:15;98274.27;;;0.46;93.41
75549;BME280;64133;56.002;37.208;2022-12-22T23:49:19;98270.85;;;0.46;93.46
75549;BME280;64133;56.002;37.208;2022-12-22T23:54:24;98267.33;;;0.47;93.42
75549;BME280;64133;56.002;37.208;2022-12-22T23:59:29;98272.44;;;0.48;93.30
